Observation data for Dora on 02/24/2021      Previous  Date  Next       Current Mesonet Observations  Soil Data  Daily Summary Page  Observations in Plain Language
KDR1 240600Z 27010KT 08/M11 A2994 RMK A01 T00781113  RH  024%=      5-min Rain = 0
KDR1 240605Z 27010KT 08/M11 A2994 RMK A01 T00781113  RH  024%=      5-min Rain = 0
KDR1 240610Z 27011KT 08/M11 A2993 RMK A01 T00791113  RH  024%=      5-min Rain = 0
KDR1 240615Z 27011KT 08/M11 A2993 RMK A01 T00841114  RH  023%=      5-min Rain = 0
KDR1 240620Z 27011KT 08/M11 A2993 RMK A01 T00821113  RH  024%=      5-min Rain = 0
KDR1 240625Z 26010KT 08/M11 A2993 RMK A01 T00781113  RH  024%=      5-min Rain = 0
KDR1 240630Z 26011KT 07/M11 A2993 RMK A01 T00681113  RH  026%=      5-min Rain = 0
KDR1 240635Z 26011KT 06/M11 A2993 RMK A01 T00631113  RH  027%=      5-min Rain = 0
KDR1 240640Z 26011KT 06/M11 A2993 RMK A01 T00611113  RH  027%=      5-min Rain = 0
KDR1 240645Z 27012KT 07/M11 A2994 RMK A01 T00691113  RH  026%=      5-min Rain = 0
KDR1 240650Z 27012KT 08/M11 A2994 RMK A01 T00801113  RH  024%=      5-min Rain = 0
KDR1 240655Z 27012KT 08/M11 A2994 RMK A01 T00831114  RH  023%=      5-min Rain = 0
KDR1 240700Z 27010KT 08/M11 A2994 RMK A01 T00781114  RH  024%=      5-min Rain = 0
KDR1 240705Z 26010KT 07/M11 A2994 RMK A01 T00701113  RH  026%=      5-min Rain = 0
KDR1 240710Z 26010KT 06/M11 A2994 RMK A01 T00581113  RH  028%=      5-min Rain = 0
KDR1 240715Z 25012KT 06/M11 A2995 RMK A01 T00591112  RH  028%=      5-min Rain = 0
KDR1 240720Z 24011KT 05/M11 A2995 RMK A01 T00541112  RH  029%=      5-min Rain = 0
KDR1 240725Z 24010KT 05/M11 A2995 RMK A01 T00481111  RH  030%=      5-min Rain = 0
KDR1 240730Z 25010KT 05/M11 A2995 RMK A01 T00501112  RH  030%=      5-min Rain = 0
KDR1 240735Z 26010KT 06/M11 A2995 RMK A01 T00591111  RH  028%=      5-min Rain = 0
KDR1 240740Z 26010KT 07/M11 A2996 RMK A01 T00711110  RH  026%=      5-min Rain = 0
KDR1 240745Z 27010KT 08/M11 A2996 RMK A01 T00761110  RH  025%=      5-min Rain = 0
KDR1 240750Z 28011KT 08/M11 A2996 RMK A01 T00811109  RH  025%=      5-min Rain = 0
KDR1 240755Z 28012KT 09/M11 A2996 RMK A01 T00851109  RH  024%=      5-min Rain = 0
KDR1 240800Z 28013KT 09/M11 A2996 RMK A01 T00911110  RH  023%=      5-min Rain = 0
KDR1 240805Z 27013KT 09/M11 A2997 RMK A01 T00861109  RH  024%=      5-min Rain = 0
KDR1 240810Z 28012KT 07/M11 A2997 RMK A01 T00731109  RH  026%=      5-min Rain = 0
KDR1 240815Z 31011G16KT 07/M11 A2998 RMK A01 T00681107  RH  027%=      5-min Rain = 0
KDR1 240820Z 31014KT 07/M11 A2999 RMK A01 T00681106  RH  028%=      5-min Rain = 0
KDR1 240825Z 33012G17KT 08/M11 A30 RMK A01 T00761106  RH  026%=      5-min Rain = 0
KDR1 240830Z 34013G18KT 06/M11 A3001 RMK A01 T00571106  RH  030%=      5-min Rain = 0
KDR1 240835Z 34010KT 05/M11 A3001 RMK A01 T00471105  RH  032%=      5-min Rain = 0
KDR1 240840Z 34009KT 04/M11 A3001 RMK A01 T00401105  RH  034%=      5-min Rain = 0
KDR1 240845Z 34009KT 03/M11 A3001 RMK A01 T00331105  RH  035%=      5-min Rain = 0
KDR1 240850Z 35011KT 04/M10 A3002 RMK A01 T00381101  RH  035%=      5-min Rain = 0
KDR1 240855Z 35012KT 04/M10 A3002 RMK A01 T00441100  RH  034%=      5-min Rain = 0
KDR1 240900Z 00013KT 05/M09 A3002 RMK A01 T00451092  RH  036%=      5-min Rain = 0
KDR1 240905Z 00011KT 04/M09 A3002 RMK A01 T00441085  RH  039%=      5-min Rain = 0
KDR1 240910Z 01013KT 05/M07 A3003 RMK A01 T00461074  RH  042%=      5-min Rain = 0
KDR1 240915Z 02012KT 05/M07 A3003 RMK A01 T00471068  RH  043%=      5-min Rain = 0
KDR1 240920Z 02012KT 04/M07 A3003 RMK A01 T00441066  RH  045%=      5-min Rain = 0
KDR1 240925Z 02012KT 04/M06 A3003 RMK A01 T00421064  RH  046%=      5-min Rain = 0
KDR1 240930Z 02014KT 04/M06 A3003 RMK A01 T00421061  RH  047%=      5-min Rain = 0
KDR1 240935Z 03014KT 05/M06 A3003 RMK A01 T00471057  RH  047%=      5-min Rain = 0
KDR1 240940Z 02013KT 05/M06 A3004 RMK A01 T00461057  RH  047%=      5-min Rain = 0
KDR1 240945Z 02012KT 04/M06 A3004 RMK A01 T00421058  RH  048%=      5-min Rain = 0
KDR1 240950Z 03014KT 04/M06 A3004 RMK A01 T00391058  RH  049%=      5-min Rain = 0
KDR1 240955Z 02013KT 04/M06 A3004 RMK A01 T00391057  RH  050%=      5-min Rain = 0
KDR1 241000Z 02012KT 04/M06 A3004 RMK A01 T00371056  RH  051%=      5-min Rain = 0
KDR1 241005Z 02013KT 04/M05 A3005 RMK A01 T00371054  RH  051%=      5-min Rain = 0
KDR1 241010Z 02012KT 04/M05 A3005 RMK A01 T00371053  RH  052%=      5-min Rain = 0
KDR1 241015Z 01011KT 03/M05 A3006 RMK A01 T00331054  RH  053%=      5-min Rain = 0
KDR1 241020Z 01009KT 03/M05 A3006 RMK A01 T00291054  RH  054%=      5-min Rain = 0
KDR1 241025Z 00008KT 03/M05 A3007 RMK A01 T00271054  RH  056%=      5-min Rain = 0
KDR1 241030Z 03009KT 03/M05 A3007 RMK A01 T00261053  RH  056%=      5-min Rain = 0
KDR1 241035Z 02010KT 03/M05 A3007 RMK A01 T00261052  RH  057%=      5-min Rain = 0
KDR1 241040Z 02010KT 02/M05 A3007 RMK A01 T00241052  RH  057%=      5-min Rain = 0
KDR1 241045Z 01011KT 02/M05 A3008 RMK A01 T00241051  RH  058%=      5-min Rain = 0
KDR1 241050Z 01010KT 02/M05 A3008 RMK A01 T00211052  RH  059%=      5-min Rain = 0
KDR1 241055Z 01010KT 02/M05 A3008 RMK A01 T00171053  RH  060%=      5-min Rain = 0
KDR1 241100Z 01011KT 02/M05 A3008 RMK A01 T00161053  RH  060%=      5-min Rain = 0
KDR1 241105Z 02013KT 02/M05 A3008 RMK A01 T00201051  RH  060%=      5-min Rain = 0
KDR1 241110Z 02012KT 02/M05 A3009 RMK A01 T00211051  RH  059%=      5-min Rain = 0
KDR1 241115Z 02012KT 02/M05 A3009 RMK A01 T00191052  RH  060%=      5-min Rain = 0
KDR1 241120Z 02012KT 02/M05 A3009 RMK A01 T00181052  RH  060%=      5-min Rain = 0
KDR1 241125Z 01011KT 02/M05 A301 RMK A01 T00171052  RH  060%=      5-min Rain = 0
KDR1 241130Z 01010KT 01/M05 A301 RMK A01 T00121053  RH  062%=      5-min Rain = 0
KDR1 241135Z 00010KT 01/M05 A301 RMK A01 T00091054  RH  063%=      5-min Rain = 0
KDR1 241140Z 36010KT 01/M05 A301 RMK A01 T00071054  RH  063%=      5-min Rain = 0
KDR1 241145Z 00010KT 01/M05 A301 RMK A01 T00081053  RH  064%=      5-min Rain = 0
KDR1 241150Z 36011KT 01/M05 A3011 RMK A01 T00091053  RH  064%=      5-min Rain = 0
KDR1 241155Z 35011KT 01/M05 A3011 RMK A01 T00081053  RH  064%=      5-min Rain = 0
KDR1 241200Z 36010KT 01/M05 A3011 RMK A01 T00071053  RH  064%=      5-min Rain = 0
KDR1 241205Z 36010KT 01/M05 A3011 RMK A01 T00061054  RH  065%=      5-min Rain = 0
KDR1 241210Z 01010KT 01/M05 A3011 RMK A01 T00061054  RH  064%=      5-min Rain = 0
KDR1 241215Z 01010KT 01/M06 A3011 RMK A01 T00071055  RH  064%=      5-min Rain = 0
KDR1 241220Z 01010KT 00/M06 A3012 RMK A01 T00041056  RH  064%=      5-min Rain = 0
KDR1 241225Z 00010KT 00/M06 A3012 RMK A01 T00031056  RH  065%=      5-min Rain = 0
KDR1 241230Z 01011KT 00/M06 A3012 RMK A01 T00031056  RH  065%=      5-min Rain = 0
KDR1 241235Z 01010KT 01/M06 A3013 RMK A01 T00051055  RH  064%=      5-min Rain = 0
KDR1 241240Z 01010KT 00/M06 A3013 RMK A01 T00041057  RH  064%=      5-min Rain = 0
KDR1 241245Z 01010KT 00/06 A3013 RMK A01 T00000-57  RH  065%=      5-min Rain = 0
KDR1 241250Z 02011G18KT 00/M06 A3013 RMK A01 T00041056  RH  064%=      5-min Rain = 0
KDR1 241255Z 01012KT 01/M06 A3013 RMK A01 T00081056  RH  062%=      5-min Rain = 0
KDR1 241300Z 01011KT 01/M06 A3013 RMK A01 T00061057  RH  063%=      5-min Rain = 0
KDR1 241305Z 01010KT 00/M06 A3013 RMK A01 T00021058  RH  064%=      5-min Rain = 0
KDR1 241310Z 01010KT 00/06 A3013 RMK A01 T00-00-58  RH  065%=      5-min Rain = 0
KDR1 241315Z 01009KT M00/M06 A3014 RMK A01 T10011059  RH  065%=      5-min Rain = 0
KDR1 241320Z 00008KT M00/M06 A3014 RMK A01 T10041060  RH  066%=      5-min Rain = 0
KDR1 241325Z 36008KT M01/M06 A3014 RMK A01 T10091062  RH  067%=      5-min Rain = 0
KDR1 241330Z 35008KT M01/M06 A3014 RMK A01 T10121063  RH  068%=      5-min Rain = 0
KDR1 241335Z 35007KT M01/M06 A3015 RMK A01 T10131064  RH  069%=      5-min Rain = 0
KDR1 241340Z 35009KT M01/M06 A3015 RMK A01 T10141064  RH  069%=      5-min Rain = 0
KDR1 241345Z 36009KT M01/M06 A3015 RMK A01 T10121063  RH  069%=      5-min Rain = 0
KDR1 241350Z 00010KT M01/M06 A3015 RMK A01 T10081061  RH  067%=      5-min Rain = 0
KDR1 241355Z 01010KT M00/M06 A3015 RMK A01 T10041060  RH  066%=      5-min Rain = 0
KDR1 241400Z 36008KT M01/M06 A3016 RMK A01 T10051059  RH  067%=      5-min Rain = 0
KDR1 241405Z 35008KT M01/M06 A3016 RMK A01 T10051059  RH  067%=      5-min Rain = 0
KDR1 241410Z 36009KT M00/M06 A3016 RMK A01 T10031059  RH  066%=      5-min Rain = 0
KDR1 241415Z 00008KT 00/M06 A3016 RMK A01 T00021058  RH  064%=      5-min Rain = 0
KDR1 241420Z 35007KT 01/M06 A3017 RMK A01 T00051057  RH  063%=      5-min Rain = 0
KDR1 241425Z 00008KT 01/M06 A3017 RMK A01 T00101056  RH  061%=      5-min Rain = 0
KDR1 241430Z 01009KT 02/M06 A3018 RMK A01 T00161057  RH  058%=      5-min Rain = 0
KDR1 241435Z 01008KT 02/M06 A3018 RMK A01 T00221056  RH  056%=      5-min Rain = 0
KDR1 241440Z 02012KT 03/M06 A3018 RMK A01 T00251059  RH  054%=      5-min Rain = 0
KDR1 241445Z 01012KT 03/M06 A3019 RMK A01 T00271059  RH  053%=      5-min Rain = 0
KDR1 241450Z 01013KT 03/M06 A3019 RMK A01 T00281060  RH  053%=      5-min Rain = 0
KDR1 241455Z 02013KT 03/M06 A3019 RMK A01 T00311060  RH  052%=      5-min Rain = 0
KDR1 241500Z 02014G19KT 03/M06 A302 RMK A01 T00321063  RH  050%=      5-min Rain = 0
KDR1 241505Z 02015G21KT 03/M07 A302 RMK A01 T00331067  RH  048%=      5-min Rain = 0
KDR1 241510Z 03016KT 03/M07 A302 RMK A01 T00341069  RH  047%=      5-min Rain = 0
KDR1 241515Z 02017KT 03/M07 A302 RMK A01 T00341069  RH  047%=      5-min Rain = 0
KDR1 241520Z 02016KT 04/M07 A302 RMK A01 T00361069  RH  046%=      5-min Rain = 0
KDR1 241525Z 02017KT 04/M07 A3021 RMK A01 T00371069  RH  046%=      5-min Rain = 0
KDR1 241530Z 02017KT 04/M07 A3021 RMK A01 T00371070  RH  046%=      5-min Rain = 0
KDR1 241535Z 03015G20KT 04/M07 A3021 RMK A01 T00381069  RH  046%=      5-min Rain = 0
KDR1 241540Z 03014G19KT 04/M07 A3021 RMK A01 T00421067  RH  045%=      5-min Rain = 0
KDR1 241545Z 03015G21KT 04/M07 A3021 RMK A01 T00431067  RH  045%=      5-min Rain = 0
KDR1 241550Z 03015KT 05/M07 A3022 RMK A01 T00451066  RH  044%=      5-min Rain = 0
KDR1 241555Z 03015KT 05/M07 A3021 RMK A01 T00481065  RH  044%=      5-min Rain = 0
KDR1 241600Z 03015KT 05/M07 A3021 RMK A01 T00471066  RH  044%=      5-min Rain = 0
KDR1 241605Z 04014G19KT 05/M07 A3021 RMK A01 T00491067  RH  043%=      5-min Rain = 0
KDR1 241610Z 03014KT 05/M07 A3021 RMK A01 T00501066  RH  043%=      5-min Rain = 0
KDR1 241615Z 03014KT 05/M07 A3021 RMK A01 T00521067  RH  042%=      5-min Rain = 0
KDR1 241620Z 03014KT 06/M07 A3021 RMK A01 T00551068  RH  041%=      5-min Rain = 0
KDR1 241625Z 03013KT 06/M07 A3021 RMK A01 T00581068  RH  040%=      5-min Rain = 0
KDR1 241630Z 04013KT 06/M07 A3021 RMK A01 T00581070  RH  039%=      5-min Rain = 0
KDR1 241635Z 04013KT 06/M07 A3021 RMK A01 T00601071  RH  038%=      5-min Rain = 0
KDR1 241640Z 04012KT 06/M07 A3021 RMK A01 T00621073  RH  037%=      5-min Rain = 0
KDR1 241645Z 05012KT 07/M08 A3021 RMK A01 T00651076  RH  036%=      5-min Rain = 0
KDR1 241650Z 04013KT 07/M08 A3021 RMK A01 T00681077  RH  035%=      5-min Rain = 0
KDR1 241655Z 04012KT 07/M08 A3021 RMK A01 T00701077  RH  034%=      5-min Rain = 0
KDR1 241700Z 05011KT 07/M08 A3021 RMK A01 T00701079  RH  034%=      5-min Rain = 0
KDR1 241705Z 05012KT 08/M08 A3021 RMK A01 T00751081  RH  032%=      5-min Rain = 0
KDR1 241710Z 06011KT 08/M09 A3021 RMK A01 T00751085  RH  031%=      5-min Rain = 0
KDR1 241715Z 05012G18KT 08/M09 A3021 RMK A01 T00771086  RH  030%=      5-min Rain = 0
KDR1 241720Z 07012KT 08/M09 A3021 RMK A01 T00811089  RH  029%=      5-min Rain = 0
KDR1 241725Z 05013KT 09/M09 A3021 RMK A01 T00851089  RH  028%=      5-min Rain = 0
KDR1 241730Z 06011KT 08/M09 A3021 RMK A01 T00841090  RH  028%=      5-min Rain = 0
KDR1 241735Z 06011G16KT 09/M10 A302 RMK A01 T00881095  RH  026%=      5-min Rain = 0
KDR1 241740Z 06011G16KT 09/M10 A3021 RMK A01 T00901095  RH  026%=      5-min Rain = 0
KDR1 241745Z 05012G18KT 09/M10 A3021 RMK A01 T00861095  RH  027%=      5-min Rain = 0
KDR1 241750Z 06012KT 09/M10 A302 RMK A01 T00871095  RH  026%=      5-min Rain = 0
KDR1 241755Z 07011KT 10/M09 A302 RMK A01 T00951092  RH  026%=      5-min Rain = 0
KDR1 241800Z 06011G17KT 10/M10 A302 RMK A01 T00961095  RH  025%=      5-min Rain = 0
KDR1 241805Z 07011G16KT 09/M10 A302 RMK A01 T00941095  RH  025%=      5-min Rain = 0
KDR1 241810Z 08010G15KT 10/M10 A302 RMK A01 T00951096  RH  025%=      5-min Rain = 0
KDR1 241815Z 06011KT 10/M09 A302 RMK A01 T00981094  RH  025%=      5-min Rain = 0
KDR1 241820Z 06010G15KT 10/M09 A302 RMK A01 T00981094  RH  025%=      5-min Rain = 0
KDR1 241825Z 06008G13KT 10/M09 A302 RMK A01 T00981093  RH  025%=      5-min Rain = 0
KDR1 241830Z 07010G15KT 10/M09 A302 RMK A01 T01001093  RH  025%=      5-min Rain = 0
KDR1 241835Z 08007KT 10/M09 A302 RMK A01 T01011094  RH  024%=      5-min Rain = 0
KDR1 241840Z 08011G16KT 10/M09 A3019 RMK A01 T01041093  RH  024%=      5-min Rain = 0
KDR1 241845Z 09010KT 11/M09 A3019 RMK A01 T01051094  RH  024%=      5-min Rain = 0
KDR1 241850Z 08010G16KT 11/M09 A3019 RMK A01 T01111092  RH  023%=      5-min Rain = 0
KDR1 241855Z 09010G15KT 11/M10 A3019 RMK A01 T01071095  RH  023%=      5-min Rain = 0
KDR1 241900Z 10006KT 11/M09 A3018 RMK A01 T01051094  RH  024%=      5-min Rain = 0
KDR1 241905Z 11009KT 12/M09 A3017 RMK A01 T01171091  RH  022%=      5-min Rain = 0
KDR1 241910Z 10010KT 11/M10 A3017 RMK A01 T01131095  RH  022%=      5-min Rain = 0
KDR1 241915Z 09010G15KT 11/M09 A3016 RMK A01 T01111094  RH  023%=      5-min Rain = 0
KDR1 241920Z 10011G16KT 11/M09 A3016 RMK A01 T01131092  RH  023%=      5-min Rain = 0
KDR1 241925Z 11011KT 12/M09 A3015 RMK A01 T01161091  RH  023%=      5-min Rain = 0
KDR1 241930Z 10012KT 12/M09 A3015 RMK A01 T01191091  RH  022%=      5-min Rain = 0
KDR1 241935Z 09008G13KT 12/M09 A3014 RMK A01 T01181091  RH  022%=      5-min Rain = 0
KDR1 241940Z 13009KT 12/M09 A3014 RMK A01 T01231088  RH  022%=      5-min Rain = 0
KDR1 241945Z 12008G14KT 12/M09 A3014 RMK A01 T01241089  RH  022%=      5-min Rain = 0
KDR1 241950Z 09008G13KT 12/M09 A3014 RMK A01 T01201089  RH  022%=      5-min Rain = 0
KDR1 241955Z 11010G16KT 12/M09 A3013 RMK A01 T01241086  RH  022%=      5-min Rain = 0
KDR1 242000Z 13008G15KT 13/M09 A3013 RMK A01 T01281088  RH  021%=      5-min Rain = 0
KDR1 242005Z 11011KT 13/M09 A3013 RMK A01 T01291087  RH  021%=      5-min Rain = 0
KDR1 242010Z 14011KT 13/M09 A3013 RMK A01 T01301086  RH  021%=      5-min Rain = 0
KDR1 242015Z 12010KT 13/M09 A3012 RMK A01 T01281086  RH  022%=      5-min Rain = 0
KDR1 242020Z 11010KT 13/M09 A3012 RMK A01 T01271086  RH  022%=      5-min Rain = 0
KDR1 242025Z 12010KT 13/M09 A3012 RMK A01 T01301085  RH  021%=      5-min Rain = 0
KDR1 242030Z 13010G15KT 13/M09 A3011 RMK A01 T01331085  RH  021%=      5-min Rain = 0
KDR1 242035Z 12008KT 13/M09 A3011 RMK A01 T01301085  RH  021%=      5-min Rain = 0
KDR1 242040Z 14007G13KT 13/M09 A3011 RMK A01 T01271086  RH  022%=      5-min Rain = 0
KDR1 242045Z 12007G12KT 14/M08 A3011 RMK A01 T01351084  RH  021%=      5-min Rain = 0
KDR1 242050Z 11010G16KT 13/M08 A301 RMK A01 T01311084  RH  022%=      5-min Rain = 0
KDR1 242055Z 13010G17KT 13/M08 A301 RMK A01 T01331083  RH  021%=      5-min Rain = 0
KDR1 242100Z 14009G16KT 14/M08 A301 RMK A01 T01361081  RH  021%=      5-min Rain = 0
KDR1 242105Z 13009KT 14/M08 A301 RMK A01 T01361082  RH  021%=      5-min Rain = 0
KDR1 242110Z 13010G17KT 14/M08 A3009 RMK A01 T01361078  RH  022%=      5-min Rain = 0
KDR1 242115Z 17009G15KT 14/M08 A3009 RMK A01 T01351080  RH  022%=      5-min Rain = 0
KDR1 242120Z 12008G13KT 13/M08 A301 RMK A01 T01331078  RH  022%=      5-min Rain = 0
KDR1 242125Z 12009KT 13/M08 A3009 RMK A01 T01341076  RH  023%=      5-min Rain = 0
KDR1 242130Z 11009G15KT 13/M08 A3009 RMK A01 T01341076  RH  022%=      5-min Rain = 0
KDR1 242135Z 12010G16KT 14/M07 A3009 RMK A01 T01391074  RH  022%=      5-min Rain = 0
KDR1 242140Z 13012KT 14/M07 A3009 RMK A01 T01391074  RH  022%=      5-min Rain = 0
KDR1 242145Z 14010KT 14/M08 A3009 RMK A01 T01391075  RH  022%=      5-min Rain = 0
KDR1 242150Z 15010KT 14/M07 A3009 RMK A01 T01401074  RH  022%=      5-min Rain = 0
KDR1 242155Z 14011G18KT 14/M07 A3009 RMK A01 T01411072  RH  022%=      5-min Rain = 0
KDR1 242200Z 13011G18KT 14/M07 A3009 RMK A01 T01411072  RH  022%=      5-min Rain = 0
KDR1 242205Z 14011G16KT 14/M07 A3009 RMK A01 T01391073  RH  022%=      5-min Rain = 0
KDR1 242210Z 14010KT 14/M07 A3009 RMK A01 T01431071  RH  022%=      5-min Rain = 0
KDR1 242215Z 14009KT 14/M07 A3009 RMK A01 T01431071  RH  022%=      5-min Rain = 0
KDR1 242220Z 16011G16KT 14/M07 A3009 RMK A01 T01421069  RH  023%=      5-min Rain = 0
KDR1 242225Z 15012KT 14/M07 A3009 RMK A01 T01441070  RH  022%=      5-min Rain = 0
KDR1 242230Z 14011G16KT 14/M07 A3009 RMK A01 T01401070  RH  023%=      5-min Rain = 0
KDR1 242235Z 13010G17KT 14/M07 A3009 RMK A01 T01401069  RH  023%=      5-min Rain = 0
KDR1 242240Z 15011G17KT 14/M07 A3008 RMK A01 T01401068  RH  023%=      5-min Rain = 0
KDR1 242245Z 15010G15KT 14/M07 A3008 RMK A01 T01421069  RH  023%=      5-min Rain = 0
KDR1 242250Z 13010G15KT 14/M07 A3008 RMK A01 T01411068  RH  023%=      5-min Rain = 0
KDR1 242255Z 14012KT 14/M07 A3008 RMK A01 T01411067  RH  023%=      5-min Rain = 0
KDR1 242300Z 14010G15KT 14/M07 A3008 RMK A01 T01411066  RH  023%=      5-min Rain = 0
KDR1 242305Z 13010G15KT 14/M07 A3008 RMK A01 T01421065  RH  023%=      5-min Rain = 0
KDR1 242310Z 14012G18KT 14/M07 A3008 RMK A01 T01421066  RH  023%=      5-min Rain = 0
KDR1 242315Z 13011KT 14/M07 A3008 RMK A01 T01401066  RH  023%=      5-min Rain = 0
KDR1 242320Z 12011G16KT 14/M07 A3008 RMK A01 T01391066  RH  024%=      5-min Rain = 0
KDR1 242325Z 13011KT 14/M07 A3008 RMK A01 T01391066  RH  024%=      5-min Rain = 0
KDR1 242330Z 13011G17KT 14/M07 A3008 RMK A01 T01391066  RH  024%=      5-min Rain = 0
KDR1 242335Z 14012KT 14/M07 A3008 RMK A01 T01391065  RH  024%=      5-min Rain = 0
KDR1 242340Z 14011KT 14/M07 A3008 RMK A01 T01381065  RH  024%=      5-min Rain = 0
KDR1 242345Z 14008G14KT 14/M07 A3008 RMK A01 T01361065  RH  024%=      5-min Rain = 0
KDR1 242350Z 15011G20KT 14/M07 A3008 RMK A01 T01351066  RH  024%=      5-min Rain = 0
KDR1 242355Z 14012KT 13/M06 A3008 RMK A01 T01341064  RH  025%=      5-min Rain = 0
KDR1 250000Z 14011KT 13/M06 A3008 RMK A01 T01331064  RH  025%=      5-min Rain = 0
KDR1 250005Z 14012KT 13/M06 A3008 RMK A01 T01311064  RH  025%=      5-min Rain = 0
KDR1 250010Z 13012KT 13/M06 A3008 RMK A01 T01291064  RH  026%=      5-min Rain = 0
KDR1 250015Z 14009KT 13/M06 A3008 RMK A01 T01261064  RH  026%=      5-min Rain = 0
KDR1 250020Z 14010KT 12/M06 A3008 RMK A01 T01241064  RH  026%=      5-min Rain = 0
KDR1 250025Z 14011KT 12/M06 A3008 RMK A01 T01211064  RH  027%=      5-min Rain = 0
KDR1 250030Z 14011KT 12/M06 A3009 RMK A01 T01181064  RH  027%=      5-min Rain = 0
KDR1 250035Z 14010KT 11/M06 A3009 RMK A01 T01131064  RH  028%=      5-min Rain = 0
KDR1 250040Z 14009KT 11/M07 A3009 RMK A01 T01081065  RH  029%=      5-min Rain = 0
KDR1 250045Z 14009KT 10/M07 A3009 RMK A01 T01031066  RH  030%=      5-min Rain = 0
KDR1 250050Z 14009KT 10/M07 A3009 RMK A01 T01001065  RH  031%=      5-min Rain = 0
KDR1 250055Z 14009KT 10/M07 A3009 RMK A01 T00971065  RH  031%=      5-min Rain = 0
KDR1 250100Z 14009KT 09/M07 A3009 RMK A01 T00931065  RH  032%=      5-min Rain = 0
KDR1 250105Z 14009KT 09/M07 A3009 RMK A01 T00871066  RH  033%=      5-min Rain = 0
KDR1 250110Z 14010KT 08/M07 A3009 RMK A01 T00831066  RH  034%=      5-min Rain = 0
KDR1 250115Z 14010KT 08/M06 A3009 RMK A01 T00841064  RH  034%=      5-min Rain = 0
KDR1 250120Z 13009KT 08/M07 A301 RMK A01 T00811065  RH  035%=      5-min Rain = 0
KDR1 250125Z 13009KT 08/M07 A301 RMK A01 T00761065  RH  036%=      5-min Rain = 0
KDR1 250130Z 13009KT 07/M07 A301 RMK A01 T00741066  RH  036%=      5-min Rain = 0
KDR1 250135Z 13010KT 07/M07 A301 RMK A01 T00701065  RH  038%=      5-min Rain = 0
KDR1 250140Z 13011KT 07/M06 A301 RMK A01 T00741062  RH  037%=      5-min Rain = 0
KDR1 250145Z 13011KT 08/M06 A301 RMK A01 T00771061  RH  037%=      5-min Rain = 0
KDR1 250150Z 13010KT 08/M06 A301 RMK A01 T00771061  RH  037%=      5-min Rain = 0
KDR1 250155Z 13008KT 07/M06 A301 RMK A01 T00701062  RH  039%=      5-min Rain = 0
KDR1 250200Z 13007KT 06/M06 A301 RMK A01 T00641062  RH  040%=      5-min Rain = 0
KDR1 250205Z 12007KT 06/M06 A301 RMK A01 T00591064  RH  041%=      5-min Rain = 0
KDR1 250210Z 13008KT 06/M06 A3011 RMK A01 T00551063  RH  042%=      5-min Rain = 0
KDR1 250215Z 13008KT 06/M06 A3011 RMK A01 T00551062  RH  043%=      5-min Rain = 0
KDR1 250220Z 12009KT 05/M06 A301 RMK A01 T00531061  RH  043%=      5-min Rain = 0
KDR1 250225Z 12009KT 05/M06 A301 RMK A01 T00541059  RH  044%=      5-min Rain = 0
KDR1 250230Z 12010KT 06/M06 A3011 RMK A01 T00601056  RH  043%=      5-min Rain = 0
KDR1 250235Z 12010KT 06/M06 A3011 RMK A01 T00621056  RH  043%=      5-min Rain = 0
KDR1 250240Z 11009KT 06/M06 A3011 RMK A01 T00611056  RH  043%=      5-min Rain = 0
KDR1 250245Z 11010KT 06/M06 A3011 RMK A01 T00601055  RH  044%=      5-min Rain = 0
KDR1 250250Z 11010KT 06/M05 A3011 RMK A01 T00601053  RH  044%=      5-min Rain = 0
KDR1 250255Z 11010KT 06/M05 A3011 RMK A01 T00631052  RH  044%=      5-min Rain = 0
KDR1 250300Z 11011KT 06/M05 A3011 RMK A01 T00611053  RH  044%=      5-min Rain = 0
KDR1 250305Z 11011KT 06/M05 A3011 RMK A01 T00571053  RH  045%=      5-min Rain = 0
KDR1 250310Z 11011KT 06/M05 A3012 RMK A01 T00571053  RH  045%=      5-min Rain = 0
KDR1 250315Z 11012KT 06/M05 A3012 RMK A01 T00551053  RH  046%=      5-min Rain = 0
KDR1 250320Z 11012KT 05/M05 A3012 RMK A01 T00541053  RH  046%=      5-min Rain = 0
KDR1 250325Z 11012KT 05/M05 A3012 RMK A01 T00521053  RH  046%=      5-min Rain = 0
KDR1 250330Z 11012KT 05/M05 A3012 RMK A01 T00521054  RH  047%=      5-min Rain = 0
KDR1 250335Z 11012KT 05/M05 A3012 RMK A01 T00501054  RH  047%=      5-min Rain = 0
KDR1 250340Z 11013KT 05/M06 A3012 RMK A01 T00501055  RH  047%=      5-min Rain = 0
KDR1 250345Z 11014KT 05/M06 A3012 RMK A01 T00511055  RH  046%=      5-min Rain = 0
KDR1 250350Z 11015KT 05/M06 A3011 RMK A01 T00511056  RH  046%=      5-min Rain = 0
KDR1 250355Z 11015KT 05/M06 A3012 RMK A01 T00501057  RH  046%=      5-min Rain = 0
KDR1 250400Z 11015KT 05/M06 A3012 RMK A01 T00501057  RH  046%=      5-min Rain = 0
KDR1 250405Z 11015KT 05/M06 A3012 RMK A01 T00491057  RH  046%=      5-min Rain = 0
KDR1 250410Z 11014KT 05/M06 A3012 RMK A01 T00481057  RH  046%=      5-min Rain = 0
KDR1 250415Z 11014KT 05/M06 A3013 RMK A01 T00461058  RH  047%=      5-min Rain = 0
KDR1 250420Z 11014KT 04/M06 A3013 RMK A01 T00441058  RH  048%=      5-min Rain = 0
KDR1 250425Z 11014KT 04/M06 A3013 RMK A01 T00431058  RH  048%=      5-min Rain = 0
KDR1 250430Z 11013KT 04/M06 A3013 RMK A01 T00411059  RH  048%=      5-min Rain = 0
KDR1 250435Z 11013KT 04/M06 A3014 RMK A01 T00391059  RH  049%=      5-min Rain = 0
KDR1 250440Z 11012KT 04/M06 A3014 RMK A01 T00381058  RH  049%=      5-min Rain = 0
KDR1 250445Z 11013KT 04/M06 A3014 RMK A01 T00371058  RH  050%=      5-min Rain = 0
KDR1 250450Z 12014KT 04/M06 A3014 RMK A01 T00371058  RH  050%=      5-min Rain = 0
KDR1 250455Z 12014KT 04/M06 A3014 RMK A01 T00361058  RH  050%=      5-min Rain = 0
KDR1 250500Z 12014KT 04/M06 A3014 RMK A01 T00351058  RH  051%=      5-min Rain = 0
KDR1 250505Z 12015KT 03/M06 A3014 RMK A01 T00341058  RH  051%=      5-min Rain = 0
KDR1 250510Z 12016G21KT 04/M06 A3014 RMK A01 T00361057  RH  051%=      5-min Rain = 0
KDR1 250515Z 12018G23KT 04/M06 A3013 RMK A01 T00411057  RH  049%=      5-min Rain = 0
KDR1 250520Z 13016G22KT 04/M06 A3014 RMK A01 T00381058  RH  050%=      5-min Rain = 0
KDR1 250525Z 12018KT 04/M06 A3014 RMK A01 T00391057  RH  050%=      5-min Rain = 0
KDR1 250530Z 13017G22KT 04/M06 A3014 RMK A01 T00381058  RH  050%=      5-min Rain = 0
KDR1 250535Z 13015G20KT 03/M06 A3014 RMK A01 T00341058  RH  051%=      5-min Rain = 0
KDR1 250540Z 13016G21KT 03/M06 A3014 RMK A01 T00341058  RH  051%=      5-min Rain = 0
KDR1 250545Z 13015KT 03/M06 A3014 RMK A01 T00331057  RH  052%=      5-min Rain = 0
KDR1 250550Z 13015KT 03/M06 A3014 RMK A01 T00321057  RH  052%=      5-min Rain = 0
KDR1 250555Z 13014KT 03/M06 A3014 RMK A01 T00321058  RH  052%=      5-min Rain = 0

Page generated in 0.0093 seconds.